Time;durP1;ratioP1;P1;durP2;ratioP2;P2;SDS_P1;SDS_P2;PMS_P1;PMS_P2;Temp;Humidity;BMP_temperature;BMP_pressure;BME280_temperature;BME280_humidity;BME280_pressure;Samples;Min_cycle;Max_cycle;Signal;HPM_P1;HPM_P2
2021/04/14 00:00:48;;;;;;;;;;;8.40;46.70;;;;;;5032456;28;19956;-59
2021/04/14 00:03:17;;;;;;;;;;;8.50;46.80;;;;;;5032734;28;19921;-59
2021/04/14 00:05:44;;;;;;;18.05;9.02;;;;;;;;;;5051047;28;19921;-59
2021/04/14 00:08:11;;;;;;;16.08;8.77;;;;;;;;;;5048101;28;20057;-60
2021/04/14 00:10:39;;;;;;;21.00;9.63;;;8.20;46.70;;;;;;5051100;28;20043;-59
2021/04/14 00:13:13;;;;;;;17.88;8.60;;;8.30;46.80;;;;;;5052076;28;20509;-60
2021/04/14 00:15:43;;;;;;;15.80;8.27;;;8.30;47.20;;;;;;5051757;28;20052;-59
2021/04/14 00:18:11;;;;;;;14.10;9.10;;;;;;;;;;5051903;28;20036;-59
2021/04/14 00:20:38;;;;;;;18.05;9.52;;;;;;;;;;5039566;28;20569;-60
2021/04/14 00:23:07;;;;;;;13.15;8.80;;;;;;;;;;5032456;28;20114;-59
2021/04/14 00:25:36;;;;;;;17.02;9.40;;;8.30;47.10;;;;;;5047039;28;20041;-62
2021/04/14 00:28:21;;;;;;;18.45;9.07;;;8.30;46.80;;;;;;5027518;28;20046;-60
2021/04/14 00:30:49;;;;;;;15.20;8.77;;;;;;;;;;5043812;28;20124;-59
2021/04/14 00:33:18;;;;;;;18.80;9.70;;;;;;;;;;5029722;28;20037;-58
2021/04/14 00:35:44;;;;;;;;;;;8.30;46.80;;;;;;5045056;28;20438;-61
2021/04/14 00:38:13;;;;;;;18.95;9.02;;;8.30;46.90;;;;;;5055042;28;20337;-60
2021/04/14 00:40:44;;;;;;;16.83;9.18;;;8.30;47.10;;;;;;5055787;28;20083;-60
2021/04/14 00:43:13;;;;;;;16.30;9.10;;;8.30;47.40;;;;;;5055360;28;20072;-60
2021/04/14 00:45:52;;;;;;;15.55;9.00;;;;;;;;;;5055553;28;20076;-60
2021/04/14 00:48:20;;;;;;;15.63;8.68;;;;;;;;;;5041439;28;20041;-61
2021/04/14 00:50:48;;;;;;;13.70;7.82;;;;;;;;;;5036884;28;20042;-60
2021/04/14 00:53:20;;;;;;;15.40;8.25;;;8.30;47.40;;;;;;5035127;28;20128;-58
2021/04/14 00:55:47;;;;;;;18.58;8.95;;;;;;;;;;5031667;28;20041;-60
2021/04/14 00:58:14;;;;;;;;;;;8.20;47.50;;;;;;5035215;28;20067;-57
2021/04/14 01:00:50;;;;;;;20.13;9.45;;;8.30;47.50;;;;;;5035377;28;19956;-56
2021/04/14 01:03:34;;;;;;;13.57;8.27;;;8.30;47.70;;;;;;5014223;28;20046;-57
2021/04/14 01:06:21;;;;;;;16.08;8.77;;;8.30;47.60;;;;;;5015698;28;20034;-60
2021/04/14 01:08:48;;;;;;;16.30;10.18;;;;;;;;;;5021357;28;20038;-61
2021/04/14 01:11:15;;;;;;;;;;;8.20;47.60;;;;;;5035748;28;20510;-60
2021/04/14 01:13:44;;;;;;;16.45;9.38;;;8.30;47.60;;;;;;5035310;28;19952;-59
2021/04/14 01:16:12;;;;;;;15.75;9.10;;;;;;;;;;5034980;28;20100;-61
2021/04/14 01:18:40;;;;;;;16.52;9.48;;;8.40;47.60;;;;;;5035015;28;20045;-60
2021/04/14 01:21:11;;;;;;;19.30;9.25;;;8.30;47.50;;;;;;5034673;28;20499;-59
2021/04/14 01:23:39;;;;;;;14.65;8.88;;;8.40;47.70;;;;;;5014021;28;20492;-60
2021/04/14 01:26:06;;;;;;;18.15;9.45;;;;;;;;;;5025590;28;20508;-58
2021/04/14 01:28:38;;;;;;;15.38;8.90;;;8.40;47.80;;;;;;5027670;28;20041;-61
2021/04/14 01:31:11;;;;;;;18.67;9.18;;;8.40;47.80;;;;;;5035118;28;20507;-60
2021/04/14 01:33:38;;;;;;;17.88;9.38;;;;;;;;;;5034532;28;20037;-60
2021/04/14 01:36:08;;;;;;;17.00;9.35;;;8.50;48.00;;;;;;5033893;28;20040;-60
2021/04/14 01:38:35;;;;;;;16.48;9.23;;;;;;;;;;5034748;28;20049;-61
2021/04/14 01:41:03;;;;;;;16.90;9.35;;;8.60;48.00;;;;;;5016805;28;20041;-60
2021/04/14 01:43:31;;;;;;;18.60;9.60;;;;;;;;;;5034828;28;20037;-59
2021/04/14 01:45:57;;;;;;;;;;;8.60;48.00;;;;;;5034610;28;20150;-58
2021/04/14 01:48:24;;;;;;;16.63;9.40;;;;;;;;;;5016284;28;19976;-59
2021/04/14 01:50:51;;;;;;;;;;;8.60;47.70;;;;;;5034008;28;20053;-60
2021/04/14 01:53:20;;;;;;;18.17;9.70;;;8.70;47.70;;;;;;5016340;28;19960;-60
2021/04/14 01:55:49;;;;;;;17.80;9.70;;;8.90;47.80;;;;;;5022808;28;20169;-60
2021/04/14 01:58:17;;;;;;;22.48;9.85;;;8.70;47.60;;;;;;5027521;28;20052;-60
2021/04/14 02:00:54;;;;;;;17.52;9.73;;;8.80;47.70;;;;;;5028654;28;20505;-59
2021/04/14 02:03:24;;;;;;;19.38;10.15;;;8.80;47.80;;;;;;5034206;28;20041;-60
2021/04/14 02:05:52;;;;;;;18.50;9.75;;;;;;;;;;5033817;28;20104;-60
2021/04/14 02:08:18;;;;;;;;;;;8.80;47.50;;;;;;5034512;28;20042;-60
2021/04/14 02:10:46;;;;;;;16.63;9.02;;;;;;;;;;5033883;28;19925;-60
2021/04/14 02:13:17;;;;;;;17.02;9.27;;;8.90;47.30;;;;;;5034043;28;20073;-60
2021/04/14 02:15:44;;;;;;;15.52;9.65;;;;;;;;;;5033719;28;20092;-59
2021/04/14 02:18:11;;;;;;;17.60;9.10;;;;;;;;;;5033628;28;20045;-60
2021/04/14 02:20:39;;;;;;;16.63;9.55;;;;;;;;;;5015564;28;20478;-59
2021/04/14 02:23:17;;;;;;;18.25;9.73;;;8.90;47.40;;;;;;5015574;28;20050;-59
2021/04/14 02:25:45;;;;;;;17.30;9.20;;;;;;;;;;5024661;28;20451;-60
2021/04/14 02:28:13;;;;;;;16.58;9.90;;;;;;;;;;5028448;28;20133;-60
2021/04/14 02:30:40;;;;;;;12.95;8.85;;;;;;;;;;5033580;28;20073;-58
2021/04/14 02:33:08;;;;;;;20.98;10.27;;;8.90;46.90;;;;;;5033841;28;20037;-59
2021/04/14 02:35:36;;;;;;;19.98;9.40;;;8.90;46.80;;;;;;5032863;28;20056;-59
2021/04/14 02:38:03;;;;;;;16.67;9.95;;;;;;;;;;5033620;28;20045;-58
2021/04/14 02:40:30;;;;;;;16.23;9.57;;;;;;;;;;5015663;28;20053;-59
2021/04/14 02:42:57;;;;;;;17.42;9.45;;;;;;;;;;5037921;28;20079;-60
2021/04/14 02:45:26;;;;;;;;;;;9.00;47.10;;;;;;5050876;28;20071;-58
2021/04/14 02:47:53;;;;;;;14.80;8.88;;;;;;;;;;5042372;28;19925;-60
2021/04/14 02:50:20;;;;;;;18.08;8.25;;;;;;;;;;5041872;28;20104;-60
2021/04/14 02:52:52;;;;;;;14.63;8.43;;;;;;;;;;5032162;28;20053;-60
2021/04/14 02:55:21;;;;;;;17.52;8.82;;;8.90;45.70;;;;;;5041334;28;20068;-56
2021/04/14 02:57:48;;;;;;;17.77;7.97;;;;;;;;;;5032101;28;20050;-59
2021/04/14 03:00:16;;;;;;;;;;;8.90;45.60;;;;;;5032430;28;20041;-61
2021/04/14 03:02:43;;;;;;;17.83;8.13;;;;;;;;;;5043213;28;19959;-60
2021/04/14 03:05:12;;;;;;;15.02;8.35;;;9.10;45.00;;;;;;5044126;28;20045;-60
2021/04/14 03:07:40;;;;;;;17.48;8.65;;;;;;;;;;5033755;28;20084;-60
2021/04/14 03:10:09;;;;;;;14.35;8.77;;;9.10;44.20;;;;;;5052840;28;20515;-60
2021/04/14 03:12:47;;;;;;;16.80;8.50;;;;;;;;;;5052670;28;20056;-60
2021/04/14 03:15:15;;;;;;;14.90;8.68;;;9.20;44.10;;;;;;5034958;28;20068;-60
2021/04/14 03:17:42;;;;;;;17.30;9.90;;;;;;;;;;5052236;28;20347;-60
2021/04/14 03:20:10;;;;;;;14.40;8.60;;;9.30;45.00;;;;;;5032935;28;20049;-60
2021/04/14 03:22:37;;;;;;;25.00;10.60;;;;;;;;;;5032333;28;20104;-60
2021/04/14 03:25:05;;;;;;;19.80;9.77;;;;;;;;;;5037321;28;20037;-60
2021/04/14 03:27:35;;;;;;;13.73;9.07;;;;;;;;;;5041451;28;20044;-61
2021/04/14 03:30:04;;;;;;;21.58;9.77;;;9.10;46.10;;;;;;5050031;28;20499;-57
2021/04/14 03:32:31;;;;;;;15.82;9.32;;;;;;;;;;5051926;28;20451;-59
2021/04/14 03:34:58;;;;;;;;;;;9.20;46.30;;;;;;5052451;28;20380;-60
2021/04/14 03:37:26;;;;;;;16.58;9.25;;;;;;;;;;5052089;28;20441;-60
2021/04/14 03:39:52;;;;;;;;;;;9.10;46.30;;;;;;5046349;28;20049;-60
2021/04/14 03:42:19;;;;;;;15.63;8.50;;;;;;;;;;5052226;28;20286;-60
2021/04/14 03:44:51;;;;;;;;;;;9.00;45.40;;;;;;5052657;28;20029;-60
2021/04/14 03:47:18;;;;;;;13.57;8.48;;;9.00;45.20;;;;;;5047005;28;20290;-60
2021/04/14 03:49:45;;;;;;;17.85;9.02;;;;;;;;;;5032138;28;20521;-60
2021/04/14 03:52:12;;;;;;;;;;;9.00;45.30;;;;;;5032794;28;20037;-60
2021/04/14 03:54:39;;;;;;;22.60;9.57;;;;;;;;;;5031880;28;19921;-59
2021/04/14 03:57:24;;;;;;;14.38;9.02;;;;;;;;;;5031592;28;20049;-60
2021/04/14 03:59:50;;;;;;;;;;;9.00;45.80;;;;;;5032274;28;20100;-60
2021/04/14 04:02:22;;;;;;;15.27;8.00;;;;;;;;;;5030013;28;20302;-60
2021/04/14 04:04:49;;;;;;;15.45;8.57;;;;;;;;;;5000695;28;20052;-57
2021/04/14 04:07:20;;;;;;;14.02;9.07;;;;;;;;;;5022590;28;20044;-59
2021/04/14 04:09:46;;;;;;;;;;;8.80;45.00;;;;;;5031683;28;20045;-60
2021/04/14 04:12:13;;;;;;;;;;;8.90;45.10;;;;;;5032424;28;19928;-60
2021/04/14 04:14:48;;;;;;;16.83;9.13;;;;;;;;;;5031878;28;19925;-59
2021/04/14 04:17:17;;;;;;;15.27;8.82;;;9.10;45.30;;;;;;5031106;28;20037;-61
2021/04/14 04:19:45;;;;;;;17.00;9.73;;;;;;;;;;5031562;28;20049;-55
2021/04/14 04:22:12;;;;;;;;;;;9.20;45.50;;;;;;5032060;28;20045;-59
2021/04/14 04:24:39;;;;;;;18.15;10.07;;;;;;;;;;5017173;28;19960;-61
2021/04/14 04:27:06;;;;;;;14.38;9.02;;;;;;;;;;5017278;28;20057;-60
2021/04/14 04:29:33;;;;;;;;;;;9.10;45.70;;;;;;5032279;28;20052;-59
2021/04/14 04:32:00;;;;;;;13.75;8.55;;;;;;;;;;5031459;28;19975;-61
2021/04/14 04:34:27;;;;;;;19.80;9.68;;;;;;;;;;5031553;28;20055;-60
2021/04/14 04:36:53;;;;;;;;;;;8.90;45.40;;;;;;5031851;28;20037;-61
2021/04/14 04:39:21;;;;;;;16.17;9.35;;;;;;;;;;5031793;28;19925;-58
2021/04/14 04:41:50;;;;;;;15.80;9.23;;;;;;;;;;5031462;28;20053;-61
2021/04/14 04:44:17;;;;;;;;;;;8.90;45.60;;;;;;5031481;28;20491;-58
2021/04/14 04:46:44;;;;;;;17.65;8.88;;;;;;;;;;5029568;28;19921;-61
2021/04/14 04:49:11;;;;;;;18.23;9.43;;;;;;;;;;5030944;28;20053;-60
2021/04/14 04:51:39;;;;;;;16.30;9.57;;;;;;;;;;5020121;28;20441;-59
2021/04/14 04:54:05;;;;;;;;;;;8.90;45.00;;;;;;5015930;28;20087;-60
2021/04/14 04:56:32;;;;;;;15.63;9.82;;;;;;;;;;5031619;28;19975;-61
2021/04/14 04:58:59;;;;;;;;;;;8.90;44.20;;;;;;5030865;28;20088;-59
2021/04/14 05:01:27;;;;;;;20.25;10.15;;;8.90;44.30;;;;;;5030903;28;19921;-61
2021/04/14 05:03:54;;;;;;;18.17;9.98;;;;;;;;;;5013591;28;20053;-61
2021/04/14 05:06:23;;;;;;;14.82;9.95;;;8.80;44.80;;;;;;5031191;28;20044;-60
2021/04/14 05:08:52;;;;;;;18.83;9.90;;;;;;;;;;5031426;28;20056;-59
2021/04/14 05:11:19;;;;;;;;;;;8.80;44.80;;;;;;5031686;28;20045;-60
2021/04/14 05:13:47;;;;;;;;;;;8.80;45.30;;;;;;5030946;28;19936;-59
2021/04/14 05:16:14;;;;;;;18.75;9.80;;;;;;;;;;5029608;28;19921;-58
2021/04/14 05:18:41;;;;;;;17.63;10.15;;;;;;;;;;5024629;28;20128;-59
2021/04/14 05:21:08;;;;;;;;;;;8.90;44.60;;;;;;5023920;28;20049;-60
2021/04/14 05:23:35;;;;;;;20.45;10.05;;;;;;;;;;5033500;28;19976;-59
2021/04/14 05:26:02;;;;;;;;;;;8.90;44.40;;;;;;5035164;28;20042;-60
2021/04/14 05:28:29;;;;;;;21.58;10.75;;;;;;;;;;5034321;28;20406;-60
2021/04/14 05:30:56;;;;;;;;;;;9.00;45.10;;;;;;5034657;28;20487;-60
2021/04/14 05:33:23;;;;;;;19.50;11.20;;;;;;;;;;5033014;28;20302;-59
2021/04/14 05:35:54;;;;;;;18.70;10.38;;;9.10;45.20;;;;;;5041659;28;20083;-60
2021/04/14 05:38:26;;;;;;;19.70;10.40;;;9.10;45.30;;;;;;5053991;28;20053;-59
2021/04/14 05:40:53;;;;;;;19.10;10.45;;;;;;;;;;5036408;28;20059;-59
2021/04/14 05:43:30;;;;;;;19.63;10.23;;;9.10;44.90;;;;;;5040699;28;20054;-60
2021/04/14 05:46:00;;;;;;;22.02;10.88;;;9.20;44.60;;;;;;5037161;28;20045;-60
2021/04/14 05:48:27;;;;;;;17.25;10.63;;;;;;;;;;5034174;28;20068;-59
2021/04/14 05:50:56;;;;;;;18.42;10.80;;;;;;;;;;5053675;28;20052;-60
2021/04/14 05:53:28;;;;;;;18.70;10.43;;;;;;;;;;5053824;28;20075;-59
2021/04/14 05:55:58;;;;;;;20.33;11.13;;;;;;;;;;5052576;28;20119;-61
2021/04/14 05:58:32;;;;;;;19.15;11.10;;;;;;;;;;5037422;28;20056;-58
2021/04/14 06:01:00;;;;;;;21.10;11.13;;;9.70;46.10;;;;;;5032866;28;20041;-59
2021/04/14 06:03:27;;;;;;;23.38;12.02;;;;;;;;;;5033979;28;20088;-60
2021/04/14 06:05:57;;;;;;;24.00;11.43;;;9.70;45.50;;;;;;5030082;28;20049;-58
2021/04/14 06:08:26;;;;;;;17.52;10.45;;;9.80;45.50;;;;;;5029548;28;20061;-61
2021/04/14 06:10:56;;;;;;;20.25;10.98;;;9.90;45.40;;;;;;5033072;28;20415;-56
2021/04/14 06:13:32;;;;;;;23.25;11.50;;;9.90;45.20;;;;;;5030270;28;20037;-58
2021/04/14 06:16:06;;;;;;;21.60;10.63;;;9.90;44.60;;;;;;5033292;28;20510;-61
2021/04/14 06:18:41;;;;;;;21.63;10.75;;;;;;;;;;5033219;28;20119;-61
2021/04/14 06:21:09;;;;;;;19.92;11.55;;;10.20;44.10;;;;;;4682730;28;10000443;-60
2021/04/14 06:23:36;;;;;;;21.52;10.23;;;;;;;;;;5029959;28;20046;-60
2021/04/14 06:26:25;;;;;;;17.17;10.70;;;10.30;43.90;;;;;;5030478;28;20514;-61
2021/04/14 06:28:54;;;;;;;20.23;12.00;;;;;;;;;;5017069;28;20057;-61
2021/04/14 06:31:29;;;;;;;16.08;9.82;;;10.50;43.90;;;;;;5030601;28;20052;-60
2021/04/14 06:33:57;;;;;;;20.52;10.38;;;;;;;;;;5012542;28;20052;-60
2021/04/14 06:36:24;;;;;;;19.02;10.85;;;;;;;;;;5031006;28;20057;-61
2021/04/14 06:38:53;;;;;;;24.55;10.90;;;;;;;;;;5030470;28;20091;-61
2021/04/14 06:44:39;;;;;;;16.38;10.23;;;10.80;43.40;;;;;;4968987;28;20062;-62
2021/04/14 06:47:38;;;;;;;18.27;9.85;;;11.00;42.90;;;;;;4961354;28;20055;-61
2021/04/14 06:50:30;;;;;;;18.98;10.88;;;11.20;42.20;;;;;;5109905;27;731924;-60
2021/04/14 06:53:02;;;;;;;17.95;10.77;;;11.20;42.70;;;;;;5106790;28;20125;-59
2021/04/14 06:55:38;;;;;;;21.73;13.15;;;11.40;42.50;;;;;;5106131;28;20079;-62
2021/04/14 06:58:12;;;;;;;17.58;10.63;;;11.50;41.80;;;;;;5101843;28;20033;-61
2021/04/14 07:00:53;;;;;;;16.52;10.65;;;11.50;41.80;;;;;;5101109;28;20064;-59
2021/04/14 07:03:28;;;;;;;17.83;10.40;;;11.60;41.70;;;;;;5102253;28;20097;-62
2021/04/14 07:05:58;;;;;;;21.02;10.45;;;11.60;41.20;;;;;;5099184;28;20577;-60
2021/04/14 07:08:36;;;;;;;21.48;10.00;;;11.80;41.00;;;;;;5105821;28;20040;-62
2021/04/14 07:11:04;;;;;;;16.88;9.88;;;11.70;39.20;;;;;;5103690;28;20146;-60
2021/04/14 07:13:36;;;;;;;19.85;9.40;;;11.70;39.90;;;;;;5106601;28;20509;-62
2021/04/14 07:16:06;;;;;;;15.52;9.00;;;11.90;40.40;;;;;;5096398;28;20040;-66
2021/04/14 07:18:57;;;;;;;18.08;9.77;;;11.90;39.40;;;;;;5093775;28;20047;-62
2021/04/14 07:21:32;;;;;;;14.23;8.13;;;12.10;39.30;;;;;;5106925;28;20375;-61
2021/04/14 07:24:27;;;;;;;17.45;9.52;;;12.30;39.60;;;;;;5108017;28;20062;-61
2021/04/14 07:27:02;;;;;;;14.77;8.77;;;12.60;39.40;;;;;;5046015;28;20149;-62
2021/04/14 07:29:40;;;;;;;16.48;9.50;;;12.60;38.90;;;;;;5054253;28;20097;-61
2021/04/14 07:32:13;;;;;;;16.83;9.32;;;12.90;38.70;;;;;;5045294;28;20152;-61
2021/04/14 07:34:58;;;;;;;20.45;10.23;;;13.00;38.90;;;;;;5028037;28;20424;-61
2021/04/14 07:37:38;;;;;;;14.23;8.63;;;13.10;37.40;;;;;;5044711;28;20053;-62
2021/04/14 07:40:19;;;;;;;14.20;8.38;;;13.40;37.50;;;;;;5047782;28;20128;-58
2021/04/14 07:43:26;;;;;;;19.63;8.98;;;13.50;36.70;;;;;;5044970;28;20053;-63
2021/04/14 07:45:53;;;;;;;17.73;8.43;;;;;;;;;;5030714;28;20518;-62
2021/04/14 07:48:32;;;;;;;16.45;8.05;;;13.70;36.90;;;;;;5044464;28;20596;-63
2021/04/14 07:51:01;;;;;;;18.25;9.43;;;13.80;36.90;;;;;;5030986;28;20057;-64
2021/04/14 07:53:31;;;;;;;13.73;8.68;;;13.80;37.10;;;;;;5044512;28;20052;-63
2021/04/14 07:56:20;;;;;;;17.67;9.57;;;14.00;37.60;;;;;;5047550;28;20049;-64
2021/04/14 07:58:51;;;;;;;19.23;10.40;;;14.10;37.90;;;;;;5052230;28;20067;-62
2021/04/14 08:01:25;;;;;;;19.00;10.05;;;14.20;37.40;;;;;;5017957;28;20057;-62
2021/04/14 08:03:53;;;;;;;19.80;10.68;;;14.30;36.70;;;;;;5054140;28;20059;-63
2021/04/14 08:06:29;;;;;;;19.52;10.57;;;14.30;36.20;;;;;;5089519;28;20399;-62
2021/04/14 08:08:56;;;;;;;;;;;14.30;36.80;;;;;;5087770;28;20051;-61
2021/04/14 08:11:31;;;;;;;19.83;9.88;;;14.40;36.10;;;;;;5093658;28;19988;-62
2021/04/14 08:14:12;;;;;;;21.25;10.50;;;14.20;35.80;;;;;;5088347;28;20112;-62
2021/04/14 08:16:47;;;;;;;19.40;10.38;;;14.20;36.20;;;;;;5093192;28;20036;-59
2021/04/14 08:19:20;;;;;;;;;;;14.20;36.70;;;;;;5094050;28;20067;-64
2021/04/14 08:22:06;;;;;;;21.58;9.65;;;14.20;36.00;;;;;;5093235;28;19959;-63
2021/04/14 08:24:47;;;;;;;17.83;9.57;;;14.20;35.40;;;;;;5092481;28;20047;-64
2021/04/14 08:27:39;;;;;;;17.52;9.63;;;14.20;35.20;;;;;;5080512;28;20040;-63
2021/04/14 08:30:10;;;;;;;17.98;9.27;;;14.30;35.70;;;;;;5093508;28;20043;-60
2021/04/14 08:32:44;;;;;;;15.57;8.93;;;14.40;35.40;;;;;;5093022;28;20506;-61
2021/04/14 08:35:35;;;;;;;17.85;9.40;;;14.40;36.00;;;;;;5092339;28;20048;-62
2021/04/14 08:38:04;;;;;;;21.42;9.25;;;14.10;35.90;;;;;;5029757;28;20053;-63
2021/04/14 08:40:35;;;;;;;16.55;9.00;;;14.30;35.10;;;;;;5030697;28;20661;-63
2021/04/14 08:43:12;;;;;;;19.58;8.70;;;14.20;35.00;;;;;;5030783;28;20085;-63
2021/04/14 08:45:54;;;;;;;14.32;8.27;;;;;;;;;;5030394;28;20097;-63
2021/04/14 08:48:26;;;;;;;19.02;8.57;;;14.40;34.80;;;;;;5030175;28;20053;-63
2021/04/14 08:50:58;;;;;;;17.63;9.23;;;14.60;34.80;;;;;;5029561;28;20409;-63
2021/04/14 08:53:31;;;;;;;18.98;8.75;;;14.80;34.00;;;;;;5030567;28;20061;-62
2021/04/14 08:55:58;;;;;;;16.42;8.32;;;;;;;;;;5030199;28;20057;-63
2021/04/14 08:58:25;;;;;;;16.38;8.40;;;;;;;;;;5029155;28;20065;-62
2021/04/14 09:00:53;;;;;;;26.48;8.52;;;15.10;33.50;;;;;;5030045;28;20133;-62
2021/04/14 09:03:26;;;;;;;16.58;8.30;;;15.20;33.00;;;;;;5030488;28;20045;-63
2021/04/14 09:05:54;;;;;;;17.58;8.35;;;;;;;;;;5028574;28;20152;-62
2021/04/14 09:08:30;;;;;;;16.83;7.47;;;15.50;32.20;;;;;;5029177;28;20053;-63
2021/04/14 09:10:59;;;;;;;20.08;8.10;;;;;;;;;;5029937;28;20052;-64
2021/04/14 09:13:30;;;;;;;13.30;7.70;;;;;;;;;;5029211;28;20057;-63
2021/04/14 09:15:59;;;;;;;16.98;8.00;;;15.50;32.50;;;;;;5085508;28;20039;-63
2021/04/14 09:18:29;;;;;;;17.25;8.25;;;15.80;32.00;;;;;;5092848;28;20528;-63
2021/04/14 09:21:08;;;;;;;16.92;7.95;;;15.70;31.40;;;;;;5092052;28;20061;-62
2021/04/14 09:23:38;;;;;;;18.45;7.85;;;16.00;32.40;;;;;;5092642;28;20040;-54
2021/04/14 09:26:15;;;;;;;16.75;8.93;;;16.00;32.00;;;;;;5092773;28;20040;-53
2021/04/14 09:28:47;;;;;;;15.13;8.57;;;16.20;32.00;;;;;;5090869;28;20145;-56
2021/04/14 09:31:39;;;;;;;18.70;9.85;;;16.30;33.70;;;;;;5092322;28;20547;-58
2021/04/14 09:34:29;;;;;;;19.77;11.00;;;16.00;35.10;;;;;;5087985;28;20050;-54
2021/04/14 09:37:11;;;;;;;17.17;10.23;;;16.10;34.40;;;;;;5091512;28;20043;-57
2021/04/14 09:39:59;;;;;;;20.55;10.70;;;16.30;35.10;;;;;;5091803;28;20044;-56
2021/04/14 09:42:26;;;;;;;21.60;11.38;;;;;;;;;;5092454;28;20051;-57
2021/04/14 09:45:11;;;;;;;21.88;12.00;;;16.60;35.30;;;;;;5090591;28;20040;-55
2021/04/14 09:47:38;;;;;;;19.65;10.55;;;;;;;;;;5092147;28;20752;-55
2021/04/14 09:50:32;;;;;;;23.42;10.68;;;16.80;34.80;;;;;;5090874;28;20498;-60
2021/04/14 09:52:59;;;;;;;18.63;11.05;;;;;;;;;;5089051;28;20074;-56
2021/04/14 09:55:47;;;;;;;17.50;10.93;;;17.40;34.00;;;;;;5091430;28;20047;-54
2021/04/14 09:58:34;;;;;;;29.40;12.15;;;17.60;32.90;;;;;;5090535;28;20087;-54
2021/04/14 10:01:15;;;;;;;20.38;12.10;;;17.70;32.50;;;;;;5091677;28;20120;-56
2021/04/14 10:03:45;;;;;;;20.15;11.77;;;17.70;32.40;;;;;;5084411;28;20088;-58
2021/04/14 10:06:20;;;;;;;21.50;10.80;;;17.60;31.50;;;;;;5091670;28;20052;-59
2021/04/14 10:08:47;;;;;;;19.55;11.18;;;17.60;32.00;;;;;;5089676;28;20336;-54
2021/04/14 10:11:33;;;;;;;18.60;10.80;;;17.50;32.10;;;;;;5091825;28;20487;-55
2021/04/14 10:14:14;;;;;;;20.77;9.33;;;17.50;31.00;;;;;;5091344;28;20075;-48
2021/04/14 10:16:46;;;;;;;15.70;8.65;;;17.40;30.60;;;;;;5091063;28;20319;-55
2021/04/14 10:19:26;;;;;;;18.40;9.23;;;17.70;30.20;;;;;;5091064;28;20478;-52
2021/04/14 10:21:53;;;;;;;14.95;8.40;;;;;;;;;;5077816;28;20391;-55
2021/04/14 10:24:20;;;;;;;16.15;8.43;;;;;;;;;;5091403;28;20051;-53
2021/04/14 10:26:56;;;;;;;17.25;8.23;;;17.10;28.40;;;;;;5091589;28;20102;-56
2021/04/14 10:29:37;;;;;;;18.98;9.43;;;17.60;29.80;;;;;;5090992;28;20047;-53
2021/04/14 10:32:05;;;;;;;23.05;9.38;;;17.80;29.60;;;;;;5086919;28;20449;-54
2021/04/14 10:34:35;;;;;;;19.48;10.63;;;17.90;29.60;;;;;;5090203;28;20062;-52
2021/04/14 10:37:22;;;;;;;22.98;10.63;;;18.00;30.10;;;;;;5088410;28;20040;-57
2021/04/14 10:39:50;;;;;;;15.60;9.02;;;18.30;29.80;;;;;;5091423;28;20044;-55
2021/04/14 10:42:25;;;;;;;29.05;5.88;;;18.30;28.60;;;;;;5091012;28;20447;-55
2021/04/14 10:44:54;;;;;;;18.38;8.38;;;18.10;28.70;;;;;;5091726;28;20048;-56
2021/04/14 10:47:26;;;;;;;14.45;7.80;;;18.30;28.60;;;;;;5090807;28;20057;-58
2021/04/14 10:50:11;;;;;;;12.98;7.50;;;18.40;27.70;;;;;;5091001;28;20387;-57
2021/04/14 10:52:38;;;;;;;13.70;7.72;;;18.40;27.20;;;;;;5091545;28;20039;-57
2021/04/14 10:55:11;;;;;;;14.00;7.55;;;18.00;26.70;;;;;;5091324;28;20044;-58
2021/04/14 10:57:42;;;;;;;13.35;7.53;;;17.60;26.90;;;;;;5088933;28;20071;-54
2021/04/14 11:00:33;;;;;;;15.93;7.45;;;17.60;27.70;;;;;;5086538;28;20058;-57
2021/04/14 11:03:11;;;;;;;14.55;7.15;;;17.60;28.20;;;;;;5089402;28;20086;-58
2021/04/14 11:05:43;;;;;;;14.82;7.25;;;17.60;28.10;;;;;;5087291;28;20040;-56
2021/04/14 11:08:12;;;;;;;13.85;7.00;;;17.80;27.90;;;;;;5088614;28;20052;-53
2021/04/14 11:10:40;;;;;;;14.82;7.53;;;17.80;27.60;;;;;;5090900;28;20055;-59
2021/04/14 11:13:17;;;;;;;14.05;7.53;;;17.90;27.90;;;;;;5090736;28;20071;-55
2021/04/14 11:15:46;;;;;;;17.90;7.50;;;17.90;28.00;;;;;;5090842;28;20044;-57
2021/04/14 11:18:15;;;;;;;17.75;8.52;;;18.20;27.90;;;;;;5085432;28;20429;-59
2021/04/14 11:21:14;;;;;;;15.00;7.65;;;18.30;26.80;;;;;;5089800;28;20072;-58
2021/04/14 11:23:41;;;;;;;17.05;7.60;;;18.30;26.10;;;;;;5089550;28;20081;-58
2021/04/14 11:26:13;;;;;;;16.10;7.93;;;18.20;26.30;;;;;;5090647;28;20061;-55
2021/04/14 11:28:46;;;;;;;14.32;7.57;;;18.40;26.90;;;;;;5089454;28;20047;-59
2021/04/14 11:31:28;;;;;;;14.50;6.95;;;18.60;26.20;;;;;;5089132;28;20040;-59
2021/04/14 11:33:56;;;;;;;13.32;7.20;;;19.00;26.40;;;;;;5086737;28;20044;-53
2021/04/14 11:36:25;;;;;;;13.15;7.60;;;19.30;25.40;;;;;;5085015;28;20456;-59
2021/04/14 11:38:56;;;;;;;14.40;7.50;;;19.80;25.60;;;;;;5093700;28;20040;-60
2021/04/14 11:41:33;;;;;;;14.77;7.88;;;20.30;25.40;;;;;;5094737;28;20043;-58
2021/04/14 11:44:01;;;;;;;11.75;7.20;;;20.50;23.70;;;;;;5094858;28;20128;-58
2021/04/14 11:46:31;;;;;;;14.13;7.32;;;20.60;23.90;;;;;;5091075;28;20068;-55
2021/04/14 11:49:04;;;;;;;12.82;7.10;;;20.70;23.80;;;;;;5090933;28;20572;-59
2021/04/14 11:51:42;;;;;;;11.95;7.22;;;20.50;23.30;;;;;;5094372;28;20032;-55
2021/04/14 11:54:26;;;;;;;13.80;6.82;;;20.10;23.50;;;;;;5094391;28;20044;-57
2021/04/14 11:57:08;;;;;;;13.45;7.53;;;20.00;24.70;;;;;;5092759;28;20052;-55
2021/04/14 11:59:36;;;;;;;14.52;6.70;;;20.20;24.60;;;;;;5092335;28;20056;-58
2021/04/14 12:02:21;;;;;;;13.40;6.78;;;20.40;24.10;;;;;;5093900;28;20047;-57
2021/04/14 12:05:03;;;;;;;13.25;6.88;;;20.60;23.60;;;;;;5082437;28;20040;-58
2021/04/14 12:07:30;;;;;;;15.02;7.28;;;20.80;23.90;;;;;;5093772;28;20040;-61
2021/04/14 12:09:59;;;;;;;12.02;6.95;;;21.10;23.30;;;;;;5093808;28;20040;-59
2021/04/14 12:12:26;;;;;;;15.68;7.57;;;21.50;22.70;;;;;;5093684;28;20144;-56
2021/04/14 12:14:53;;;;;;;13.70;7.32;;;21.70;23.50;;;;;;5093424;28;20044;-56
2021/04/14 12:17:20;;;;;;;14.25;7.40;;;21.50;23.10;;;;;;5086764;28;20544;-58
2021/04/14 12:19:55;;;;;;;16.02;7.85;;;21.30;22.90;;;;;;5093304;28;20067;-57
2021/04/14 12:22:22;;;;;;;16.27;8.30;;;21.30;23.00;;;;;;5093879;28;20044;-57
2021/04/14 12:24:49;;;;;;;13.20;7.60;;;21.20;23.40;;;;;;5094049;28;20118;-58
2021/04/14 12:27:23;;;;;;;16.13;8.18;;;20.90;23.00;;;;;;5092409;28;20036;-55
2021/04/14 12:29:51;;;;;;;15.52;7.82;;;20.50;23.40;;;;;;5092553;28;20127;-52
2021/04/14 12:32:19;;;;;;;15.82;7.80;;;20.20;23.70;;;;;;5089064;28;20040;-58
2021/04/14 12:34:45;;;;;;;16.20;8.40;;;19.80;24.80;;;;;;5092426;28;20083;-53
2021/04/14 12:37:13;;;;;;;15.43;8.35;;;19.50;24.70;;;;;;5091763;28;20040;-54
2021/04/14 12:39:45;;;;;;;13.88;8.00;;;19.20;24.80;;;;;;5092836;28;20406;-59
2021/04/14 12:42:30;;;;;;;14.68;7.30;;;19.00;25.20;;;;;;5090506;28;20048;-55
2021/04/14 12:44:57;;;;;;;12.68;7.28;;;;;;;;;;5084594;28;20036;-54
2021/04/14 12:47:26;;;;;;;14.82;7.63;;;18.70;24.80;;;;;;5092050;28;20177;-55
2021/04/14 12:49:56;;;;;;;15.52;7.30;;;18.40;24.80;;;;;;5092357;28;20128;-54
2021/04/14 12:52:43;;;;;;;14.50;7.68;;;18.20;24.90;;;;;;5092962;28;20067;-56
2021/04/14 12:55:14;;;;;;;14.45;7.80;;;18.10;25.30;;;;;;5091273;28;20351;-55
2021/04/14 12:57:41;;;;;;;15.73;7.72;;;18.20;25.90;;;;;;5090529;28;20059;-57
2021/04/14 13:00:12;;;;;;;14.77;7.93;;;18.30;25.80;;;;;;5079978;28;20036;-57
2021/04/14 13:02:47;;;;;;;13.75;7.20;;;18.50;24.90;;;;;;5092176;28;20432;-54
2021/04/14 13:05:24;;;;;;;11.55;6.97;;;18.90;25.30;;;;;;5092779;28;20570;-57
2021/04/14 13:08:03;;;;;;;13.07;7.60;;;19.50;24.90;;;;;;5092880;28;20454;-58
2021/04/14 13:10:44;;;;;;;12.65;6.60;;;20.20;24.30;;;;;;5092963;28;20068;-57
2021/04/14 13:13:11;;;;;;;12.77;6.70;;;20.20;24.80;;;;;;5091381;28;20044;-57
2021/04/14 13:16:02;;;;;;;14.30;6.50;;;20.10;25.50;;;;;;5093001;28;20076;-59
2021/04/14 13:18:37;;;;;;;14.13;6.38;;;20.70;25.50;;;;;;5091971;28;20051;-56
2021/04/14 13:21:43;;;;;;;14.23;6.03;;;21.00;25.30;;;;;;5092701;28;20391;-57
2021/04/14 13:24:16;;;;;;;13.00;6.85;;;21.10;24.70;;;;;;5092894;28;20055;-58
2021/04/14 13:26:46;;;;;;;12.23;7.10;;;20.70;25.70;;;;;;5091646;28;20046;-58
2021/04/14 13:29:33;;;;;;;14.85;7.25;;;20.40;26.30;;;;;;5092535;28;20062;-58
2021/04/14 13:32:31;;;;;;;13.30;7.00;;;20.40;26.70;;;;;;5091890;28;20043;-58
2021/04/14 13:35:18;;;;;;;;;;;19.90;27.40;;;;;;5092587;28;20115;-54
2021/04/14 13:38:10;;;;;;;15.95;7.25;;;19.10;27.90;;;;;;5092023;28;19924;-56
2021/04/14 13:40:55;;;;;;;11.85;6.60;;;18.60;28.00;;;;;;5086874;28;20395;-54
2021/04/14 13:43:46;;;;;;;15.35;7.25;;;18.30;28.50;;;;;;5084419;28;20052;-54
2021/04/14 13:46:27;;;;;;;11.55;6.43;;;18.30;28.10;;;;;;5080954;28;20040;-57